Airport Name : Medicine Hat

Other Name : Medicine Hat

ICAO : CYXH

IATA : YXH

FAA :

Latitude : 50.01889

Longitude : -110.720833

Country : Canada

Local Date and Time : 19 Jan 2021 07:27

 

TAF (Terminal Aerodrome Forecast)

TAF CYXH 191142Z 1912/1924 21005KT P6SM SKC BECMG 1913/1915 20012KT FM191500 20012KT P6SM SCT240 BECMG 1917/1919 21018G28KT RMK FCST BASED ON AUTO OBS. NXT FCST BY 191800Z

 

METAR (METeorological Aerodrome Report)

CYXH 191400Z 21010G16KT 15SM SKC M05/M08 A3019 RMK SLP257

CYXH 191300Z 21012KT 15SM SKC M05/M08 A3023 RMK SLP273

CYXH 191200Z AUTO 22007KT 9SM CLR M05/M08 A3028 RMK SLP288

CYXH 191100Z AUTO 21005KT 180V250 9SM CLR M04/M08 A3029 RMK SLP290

To Charter a Jet Click here.